sensor_id;sensor_type;location;lat;lon;timestamp;P1;durP1;ratioP1;P2;durP2;ratioP2
52972;SDS011;38837;48.916;2.336;2024-01-27T00:00:28;18.27;;;9.85;;
52972;SDS011;38837;48.916;2.336;2024-01-27T00:02:30;20.58;;;10.02;;
52972;SDS011;38837;48.916;2.336;2024-01-27T00:04:32;17.90;;;10.68;;
52972;SDS011;38837;48.916;2.336;2024-01-27T00:06:36;23.63;;;11.45;;
52972;SDS011;38837;48.916;2.336;2024-01-27T00:08:38;18.05;;;10.88;;
52972;SDS011;38837;48.916;2.336;2024-01-27T00:10:40;19.85;;;11.65;;
52972;SDS011;38837;48.916;2.336;2024-01-27T00:12:46;20.85;;;11.35;;
52972;SDS011;38837;48.916;2.336;2024-01-27T00:14:54;18.83;;;11.85;;
52972;SDS011;38837;48.916;2.336;2024-01-27T00:17:02;20.63;;;11.80;;
52972;SDS011;38837;48.916;2.336;2024-01-27T00:21:08;22.77;;;12.60;;
52972;SDS011;38837;48.916;2.336;2024-01-27T00:23:09;22.85;;;11.90;;
52972;SDS011;38837;48.916;2.336;2024-01-27T00:25:11;21.27;;;11.05;;
52972;SDS011;38837;48.916;2.336;2024-01-27T00:27:13;21.48;;;11.68;;
52972;SDS011;38837;48.916;2.336;2024-01-27T00:29:15;21.30;;;12.43;;
52972;SDS011;38837;48.916;2.336;2024-01-27T00:31:17;25.35;;;13.02;;
52972;SDS011;38837;48.916;2.336;2024-01-27T00:33:19;24.30;;;12.85;;
52972;SDS011;38837;48.916;2.336;2024-01-27T00:35:21;21.60;;;12.43;;
52972;SDS011;38837;48.916;2.336;2024-01-27T00:37:23;18.85;;;11.50;;
52972;SDS011;38837;48.916;2.336;2024-01-27T00:39:24;19.20;;;12.82;;
52972;SDS011;38837;48.916;2.336;2024-01-27T00:41:26;20.67;;;12.40;;
52972;SDS011;38837;48.916;2.336;2024-01-27T00:43:28;21.23;;;12.73;;
52972;SDS011;38837;48.916;2.336;2024-01-27T00:45:31;20.45;;;12.55;;
52972;SDS011;38837;48.916;2.336;2024-01-27T00:47:39;21.50;;;11.82;;
52972;SDS011;38837;48.916;2.336;2024-01-27T00:49:47;23.42;;;13.05;;
52972;SDS011;38837;48.916;2.336;2024-01-27T00:51:51;23.27;;;12.93;;
52972;SDS011;38837;48.916;2.336;2024-01-27T00:53:53;21.17;;;13.23;;
52972;SDS011;38837;48.916;2.336;2024-01-27T00:55:55;21.38;;;13.05;;
52972;SDS011;38837;48.916;2.336;2024-01-27T00:57:57;24.80;;;12.75;;
52972;SDS011;38837;48.916;2.336;2024-01-27T00:59:59;19.90;;;12.13;;
52972;SDS011;38837;48.916;2.336;2024-01-27T01:02:01;23.40;;;12.95;;
52972;SDS011;38837;48.916;2.336;2024-01-27T01:04:03;23.77;;;12.90;;
52972;SDS011;38837;48.916;2.336;2024-01-27T01:06:06;20.25;;;12.35;;
52972;SDS011;38837;48.916;2.336;2024-01-27T01:08:11;20.60;;;13.20;;
52972;SDS011;38837;48.916;2.336;2024-01-27T01:10:13;22.02;;;13.80;;
52972;SDS011;38837;48.916;2.336;2024-01-27T01:12:15;21.40;;;13.45;;
52972;SDS011;38837;48.916;2.336;2024-01-27T01:14:17;21.02;;;13.07;;
52972;SDS011;38837;48.916;2.336;2024-01-27T01:16:19;22.27;;;13.80;;
52972;SDS011;38837;48.916;2.336;2024-01-27T01:18:21;20.67;;;13.00;;
52972;SDS011;38837;48.916;2.336;2024-01-27T01:20:27;22.27;;;13.45;;
52972;SDS011;38837;48.916;2.336;2024-01-27T01:22:36;18.73;;;12.35;;
52972;SDS011;38837;48.916;2.336;2024-01-27T01:24:39;25.38;;;13.90;;
52972;SDS011;38837;48.916;2.336;2024-01-27T01:26:44;24.10;;;12.88;;
52972;SDS011;38837;48.916;2.336;2024-01-27T01:28:50;24.65;;;13.75;;
52972;SDS011;38837;48.916;2.336;2024-01-27T01:31:00;23.88;;;13.98;;
52972;SDS011;38837;48.916;2.336;2024-01-27T01:33:02;23.98;;;13.95;;
52972;SDS011;38837;48.916;2.336;2024-01-27T01:35:05;24.40;;;13.52;;
52972;SDS011;38837;48.916;2.336;2024-01-27T01:37:07;24.98;;;13.82;;
52972;SDS011;38837;48.916;2.336;2024-01-27T01:39:09;22.17;;;13.23;;
52972;SDS011;38837;48.916;2.336;2024-01-27T01:41:12;22.15;;;13.20;;
52972;SDS011;38837;48.916;2.336;2024-01-27T01:43:14;24.77;;;14.57;;
52972;SDS011;38837;48.916;2.336;2024-01-27T01:45:16;21.95;;;14.05;;
52972;SDS011;38837;48.916;2.336;2024-01-27T01:47:18;23.73;;;13.88;;
52972;SDS011;38837;48.916;2.336;2024-01-27T01:49:20;24.25;;;14.63;;
52972;SDS011;38837;48.916;2.336;2024-01-27T01:51:23;24.65;;;14.40;;
52972;SDS011;38837;48.916;2.336;2024-01-27T01:53:27;21.02;;;13.95;;
52972;SDS011;38837;48.916;2.336;2024-01-27T01:55:29;23.17;;;13.18;;
52972;SDS011;38837;48.916;2.336;2024-01-27T01:57:31;27.92;;;14.98;;
52972;SDS011;38837;48.916;2.336;2024-01-27T01:59:34;24.92;;;14.68;;
52972;SDS011;38837;48.916;2.336;2024-01-27T02:01:42;22.98;;;13.32;;
52972;SDS011;38837;48.916;2.336;2024-01-27T02:05:55;23.45;;;14.45;;
52972;SDS011;38837;48.916;2.336;2024-01-27T02:07:57;28.63;;;16.60;;
52972;SDS011;38837;48.916;2.336;2024-01-27T02:10:01;24.85;;;15.18;;
52972;SDS011;38837;48.916;2.336;2024-01-27T02:12:04;26.35;;;14.05;;
52972;SDS011;38837;48.916;2.336;2024-01-27T02:14:08;27.70;;;14.73;;
52972;SDS011;38837;48.916;2.336;2024-01-27T02:16:09;23.03;;;14.50;;
52972;SDS011;38837;48.916;2.336;2024-01-27T02:18:11;25.80;;;14.45;;
52972;SDS011;38837;48.916;2.336;2024-01-27T02:20:13;22.67;;;13.63;;
52972;SDS011;38837;48.916;2.336;2024-01-27T02:22:15;24.73;;;14.30;;
52972;SDS011;38837;48.916;2.336;2024-01-27T02:24:17;22.85;;;15.18;;
52972;SDS011;38837;48.916;2.336;2024-01-27T02:26:19;21.50;;;14.15;;
52972;SDS011;38837;48.916;2.336;2024-01-27T02:28:22;23.77;;;15.02;;
52972;SDS011;38837;48.916;2.336;2024-01-27T02:30:25;22.70;;;14.60;;
52972;SDS011;38837;48.916;2.336;2024-01-27T02:32:27;22.77;;;14.25;;
52972;SDS011;38837;48.916;2.336;2024-01-27T02:34:29;29.80;;;14.82;;
52972;SDS011;38837;48.916;2.336;2024-01-27T02:36:31;24.40;;;14.48;;
52972;SDS011;38837;48.916;2.336;2024-01-27T02:38:33;23.95;;;15.05;;
52972;SDS011;38837;48.916;2.336;2024-01-27T02:40:35;22.95;;;14.57;;
52972;SDS011;38837;48.916;2.336;2024-01-27T02:42:37;23.55;;;13.82;;
52972;SDS011;38837;48.916;2.336;2024-01-27T02:44:39;24.65;;;15.10;;
52972;SDS011;38837;48.916;2.336;2024-01-27T02:46:41;27.88;;;15.20;;
52972;SDS011;38837;48.916;2.336;2024-01-27T02:48:45;23.20;;;14.02;;
52972;SDS011;38837;48.916;2.336;2024-01-27T02:50:48;27.38;;;15.23;;
52972;SDS011;38837;48.916;2.336;2024-01-27T02:52:50;24.75;;;14.82;;
52972;SDS011;38837;48.916;2.336;2024-01-27T02:54:52;25.23;;;15.05;;
52972;SDS011;38837;48.916;2.336;2024-01-27T02:56:54;22.92;;;14.15;;
52972;SDS011;38837;48.916;2.336;2024-01-27T02:58:56;26.23;;;14.88;;
52972;SDS011;38837;48.916;2.336;2024-01-27T03:00:57;24.23;;;14.63;;
52972;SDS011;38837;48.916;2.336;2024-01-27T03:02:59;23.98;;;14.32;;
52972;SDS011;38837;48.916;2.336;2024-01-27T03:05:01;23.33;;;13.95;;
52972;SDS011;38837;48.916;2.336;2024-01-27T03:07:04;25.27;;;14.38;;
52972;SDS011;38837;48.916;2.336;2024-01-27T03:09:06;24.17;;;13.88;;
52972;SDS011;38837;48.916;2.336;2024-01-27T03:11:08;25.17;;;14.48;;
52972;SDS011;38837;48.916;2.336;2024-01-27T03:13:10;22.75;;;13.30;;
52972;SDS011;38837;48.916;2.336;2024-01-27T03:15:12;25.77;;;14.07;;
52972;SDS011;38837;48.916;2.336;2024-01-27T03:17:14;21.05;;;12.80;;
52972;SDS011;38837;48.916;2.336;2024-01-27T03:19:15;25.65;;;13.85;;
52972;SDS011;38837;48.916;2.336;2024-01-27T03:21:17;20.27;;;12.77;;
52972;SDS011;38837;48.916;2.336;2024-01-27T03:23:20;22.23;;;12.05;;
52972;SDS011;38837;48.916;2.336;2024-01-27T03:25:21;19.98;;;11.93;;
52972;SDS011;38837;48.916;2.336;2024-01-27T03:27:24;20.17;;;12.40;;
52972;SDS011;38837;48.916;2.336;2024-01-27T03:29:26;18.55;;;11.52;;
52972;SDS011;38837;48.916;2.336;2024-01-27T03:31:30;20.08;;;11.30;;
52972;SDS011;38837;48.916;2.336;2024-01-27T03:33:32;19.73;;;10.68;;
52972;SDS011;38837;48.916;2.336;2024-01-27T03:35:34;21.80;;;11.77;;
52972;SDS011;38837;48.916;2.336;2024-01-27T03:37:36;21.58;;;11.77;;
52972;SDS011;38837;48.916;2.336;2024-01-27T03:39:40;17.92;;;11.30;;
52972;SDS011;38837;48.916;2.336;2024-01-27T03:41:44;20.27;;;11.95;;
52972;SDS011;38837;48.916;2.336;2024-01-27T03:43:45;19.50;;;11.85;;
52972;SDS011;38837;48.916;2.336;2024-01-27T03:45:47;20.70;;;11.05;;
52972;SDS011;38837;48.916;2.336;2024-01-27T03:47:49;23.42;;;11.50;;
52972;SDS011;38837;48.916;2.336;2024-01-27T03:49:52;24.40;;;11.23;;
52972;SDS011;38837;48.916;2.336;2024-01-27T03:51:54;18.65;;;10.55;;
52972;SDS011;38837;48.916;2.336;2024-01-27T03:53:56;17.13;;;10.07;;
52972;SDS011;38837;48.916;2.336;2024-01-27T03:55:58;18.17;;;10.20;;
52972;SDS011;38837;48.916;2.336;2024-01-27T03:58:01;17.83;;;10.35;;
52972;SDS011;38837;48.916;2.336;2024-01-27T04:00:03;20.13;;;10.63;;
52972;SDS011;38837;48.916;2.336;2024-01-27T04:02:05;20.98;;;9.80;;
52972;SDS011;38837;48.916;2.336;2024-01-27T04:04:07;16.05;;;9.30;;
52972;SDS011;38837;48.916;2.336;2024-01-27T04:06:09;14.80;;;9.02;;
52972;SDS011;38837;48.916;2.336;2024-01-27T04:08:11;19.92;;;9.85;;
52972;SDS011;38837;48.916;2.336;2024-01-27T04:10:13;14.63;;;9.63;;
52972;SDS011;38837;48.916;2.336;2024-01-27T04:12:15;19.00;;;9.73;;
52972;SDS011;38837;48.916;2.336;2024-01-27T04:14:17;20.00;;;9.25;;
52972;SDS011;38837;48.916;2.336;2024-01-27T04:16:19;17.67;;;9.02;;
52972;SDS011;38837;48.916;2.336;2024-01-27T04:18:21;15.70;;;8.85;;
52972;SDS011;38837;48.916;2.336;2024-01-27T04:20:23;14.95;;;8.82;;
52972;SDS011;38837;48.916;2.336;2024-01-27T04:22:25;18.90;;;9.43;;
52972;SDS011;38837;48.916;2.336;2024-01-27T04:24:27;17.33;;;8.77;;
52972;SDS011;38837;48.916;2.336;2024-01-27T04:26:29;15.65;;;9.15;;
52972;SDS011;38837;48.916;2.336;2024-01-27T04:28:30;17.65;;;8.50;;
52972;SDS011;38837;48.916;2.336;2024-01-27T04:30:32;19.48;;;8.85;;
52972;SDS011;38837;48.916;2.336;2024-01-27T04:32:35;16.35;;;8.27;;
52972;SDS011;38837;48.916;2.336;2024-01-27T04:34:37;14.90;;;9.13;;
52972;SDS011;38837;48.916;2.336;2024-01-27T04:36:39;15.70;;;9.65;;
52972;SDS011;38837;48.916;2.336;2024-01-27T04:38:43;18.42;;;8.93;;
52972;SDS011;38837;48.916;2.336;2024-01-27T04:40:45;16.67;;;9.27;;
52972;SDS011;38837;48.916;2.336;2024-01-27T04:42:47;18.30;;;9.50;;
52972;SDS011;38837;48.916;2.336;2024-01-27T04:44:48;16.63;;;9.05;;
52972;SDS011;38837;48.916;2.336;2024-01-27T04:46:50;18.58;;;8.90;;
52972;SDS011;38837;48.916;2.336;2024-01-27T04:48:52;19.95;;;10.55;;
52972;SDS011;38837;48.916;2.336;2024-01-27T04:50:54;16.05;;;9.40;;
52972;SDS011;38837;48.916;2.336;2024-01-27T04:52:58;17.95;;;9.75;;
52972;SDS011;38837;48.916;2.336;2024-01-27T04:55:00;17.95;;;10.23;;
52972;SDS011;38837;48.916;2.336;2024-01-27T04:57:01;17.58;;;10.20;;
52972;SDS011;38837;48.916;2.336;2024-01-27T04:59:04;18.17;;;10.38;;
52972;SDS011;38837;48.916;2.336;2024-01-27T05:01:06;16.92;;;9.95;;
52972;SDS011;38837;48.916;2.336;2024-01-27T05:03:08;21.85;;;10.45;;
52972;SDS011;38837;48.916;2.336;2024-01-27T05:05:15;22.50;;;10.90;;
52972;SDS011;38837;48.916;2.336;2024-01-27T05:07:17;18.92;;;10.32;;
52972;SDS011;38837;48.916;2.336;2024-01-27T05:09:19;17.08;;;10.52;;
52972;SDS011;38837;48.916;2.336;2024-01-27T05:11:30;20.05;;;11.63;;
52972;SDS011;38837;48.916;2.336;2024-01-27T05:13:33;19.27;;;10.40;;
52972;SDS011;38837;48.916;2.336;2024-01-27T05:15:35;19.73;;;11.45;;
52972;SDS011;38837;48.916;2.336;2024-01-27T05:17:37;21.83;;;11.05;;
52972;SDS011;38837;48.916;2.336;2024-01-27T05:19:39;16.80;;;10.93;;
52972;SDS011;38837;48.916;2.336;2024-01-27T05:21:41;20.23;;;10.68;;
52972;SDS011;38837;48.916;2.336;2024-01-27T05:23:43;21.40;;;11.48;;
52972;SDS011;38837;48.916;2.336;2024-01-27T05:25:45;23.92;;;12.50;;
52972;SDS011;38837;48.916;2.336;2024-01-27T05:27:47;17.30;;;10.50;;
52972;SDS011;38837;48.916;2.336;2024-01-27T05:29:48;18.63;;;10.93;;
52972;SDS011;38837;48.916;2.336;2024-01-27T05:31:51;18.77;;;11.25;;
52972;SDS011;38837;48.916;2.336;2024-01-27T05:33:53;21.85;;;12.63;;
52972;SDS011;38837;48.916;2.336;2024-01-27T05:35:55;19.02;;;10.95;;
52972;SDS011;38837;48.916;2.336;2024-01-27T05:37:56;19.08;;;11.23;;
52972;SDS011;38837;48.916;2.336;2024-01-27T05:39:58;19.65;;;11.35;;
52972;SDS011;38837;48.916;2.336;2024-01-27T05:42:00;19.25;;;11.45;;
52972;SDS011;38837;48.916;2.336;2024-01-27T05:44:02;16.80;;;11.05;;
52972;SDS011;38837;48.916;2.336;2024-01-27T05:46:04;20.00;;;10.52;;
52972;SDS011;38837;48.916;2.336;2024-01-27T05:48:06;16.20;;;10.00;;
52972;SDS011;38837;48.916;2.336;2024-01-27T05:50:08;19.02;;;11.00;;
52972;SDS011;38837;48.916;2.336;2024-01-27T05:52:11;22.83;;;11.38;;
52972;SDS011;38837;48.916;2.336;2024-01-27T05:54:25;22.08;;;11.57;;
52972;SDS011;38837;48.916;2.336;2024-01-27T05:56:27;18.75;;;10.82;;
52972;SDS011;38837;48.916;2.336;2024-01-27T05:58:29;18.20;;;11.05;;
52972;SDS011;38837;48.916;2.336;2024-01-27T06:00:31;21.52;;;11.35;;
52972;SDS011;38837;48.916;2.336;2024-01-27T06:02:33;18.63;;;10.63;;
52972;SDS011;38837;48.916;2.336;2024-01-27T06:04:35;18.30;;;10.65;;
52972;SDS011;38837;48.916;2.336;2024-01-27T06:06:40;15.45;;;10.05;;
52972;SDS011;38837;48.916;2.336;2024-01-27T06:08:42;19.05;;;10.00;;
52972;SDS011;38837;48.916;2.336;2024-01-27T06:10:44;17.73;;;10.65;;
52972;SDS011;38837;48.916;2.336;2024-01-27T06:12:45;18.58;;;11.13;;
52972;SDS011;38837;48.916;2.336;2024-01-27T06:14:47;22.33;;;10.82;;
52972;SDS011;38837;48.916;2.336;2024-01-27T06:16:50;18.25;;;10.45;;
52972;SDS011;38837;48.916;2.336;2024-01-27T06:18:52;18.05;;;10.15;;
52972;SDS011;38837;48.916;2.336;2024-01-27T06:20:56;16.48;;;9.73;;
52972;SDS011;38837;48.916;2.336;2024-01-27T06:22:58;19.23;;;10.57;;
52972;SDS011;38837;48.916;2.336;2024-01-27T06:24:59;18.33;;;10.13;;
52972;SDS011;38837;48.916;2.336;2024-01-27T06:27:01;17.50;;;9.93;;
52972;SDS011;38837;48.916;2.336;2024-01-27T06:29:03;17.17;;;9.75;;
52972;SDS011;38837;48.916;2.336;2024-01-27T06:31:05;18.65;;;10.23;;
52972;SDS011;38837;48.916;2.336;2024-01-27T06:33:08;17.95;;;9.75;;
52972;SDS011;38837;48.916;2.336;2024-01-27T06:35:10;16.83;;;9.52;;
52972;SDS011;38837;48.916;2.336;2024-01-27T06:37:12;12.57;;;8.70;;
52972;SDS011;38837;48.916;2.336;2024-01-27T06:39:14;19.10;;;10.07;;
52972;SDS011;38837;48.916;2.336;2024-01-27T06:41:16;15.32;;;9.68;;
52972;SDS011;38837;48.916;2.336;2024-01-27T06:43:19;14.40;;;9.73;;
52972;SDS011;38837;48.916;2.336;2024-01-27T06:45:21;16.15;;;9.05;;
52972;SDS011;38837;48.916;2.336;2024-01-27T06:47:23;17.33;;;9.90;;
52972;SDS011;38837;48.916;2.336;2024-01-27T06:49:24;17.85;;;10.30;;
52972;SDS011;38837;48.916;2.336;2024-01-27T06:51:27;16.15;;;10.35;;
52972;SDS011;38837;48.916;2.336;2024-01-27T06:53:29;17.65;;;10.32;;
52972;SDS011;38837;48.916;2.336;2024-01-27T06:55:31;16.65;;;10.32;;
52972;SDS011;38837;48.916;2.336;2024-01-27T06:57:35;15.70;;;9.20;;
52972;SDS011;38837;48.916;2.336;2024-01-27T06:59:36;15.43;;;9.07;;
52972;SDS011;38837;48.916;2.336;2024-01-27T07:01:38;20.05;;;10.73;;
52972;SDS011;38837;48.916;2.336;2024-01-27T07:03:46;19.52;;;9.73;;
52972;SDS011;38837;48.916;2.336;2024-01-27T07:05:48;15.52;;;9.20;;
52972;SDS011;38837;48.916;2.336;2024-01-27T07:07:50;20.25;;;9.82;;
52972;SDS011;38837;48.916;2.336;2024-01-27T07:09:52;17.40;;;9.73;;
52972;SDS011;38837;48.916;2.336;2024-01-27T07:11:56;14.40;;;9.40;;
52972;SDS011;38837;48.916;2.336;2024-01-27T07:13:58;14.63;;;9.32;;
52972;SDS011;38837;48.916;2.336;2024-01-27T07:16:00;15.18;;;9.65;;
52972;SDS011;38837;48.916;2.336;2024-01-27T07:18:02;15.65;;;9.75;;
52972;SDS011;38837;48.916;2.336;2024-01-27T07:20:04;18.13;;;9.70;;
52972;SDS011;38837;48.916;2.336;2024-01-27T07:22:07;20.05;;;10.52;;
52972;SDS011;38837;48.916;2.336;2024-01-27T07:24:09;16.38;;;9.85;;
52972;SDS011;38837;48.916;2.336;2024-01-27T07:26:11;13.77;;;9.30;;
52972;SDS011;38837;48.916;2.336;2024-01-27T07:28:13;16.92;;;9.80;;
52972;SDS011;38837;48.916;2.336;2024-01-27T07:32:19;15.98;;;9.40;;
52972;SDS011;38837;48.916;2.336;2024-01-27T07:34:22;15.23;;;9.43;;
52972;SDS011;38837;48.916;2.336;2024-01-27T07:36:24;19.00;;;9.80;;
52972;SDS011;38837;48.916;2.336;2024-01-27T07:38:27;15.13;;;9.00;;
52972;SDS011;38837;48.916;2.336;2024-01-27T07:40:29;15.60;;;9.50;;
52972;SDS011;38837;48.916;2.336;2024-01-27T07:42:31;15.20;;;9.48;;
52972;SDS011;38837;48.916;2.336;2024-01-27T07:44:33;18.52;;;9.80;;
52972;SDS011;38837;48.916;2.336;2024-01-27T07:46:35;17.67;;;9.75;;
52972;SDS011;38837;48.916;2.336;2024-01-27T07:48:41;14.95;;;9.05;;
52972;SDS011;38837;48.916;2.336;2024-01-27T07:50:43;17.92;;;9.27;;
52972;SDS011;38837;48.916;2.336;2024-01-27T07:52:49;17.45;;;9.25;;
52972;SDS011;38837;48.916;2.336;2024-01-27T07:54:51;17.48;;;9.75;;
52972;SDS011;38837;48.916;2.336;2024-01-27T07:56:53;14.13;;;9.10;;
52972;SDS011;38837;48.916;2.336;2024-01-27T07:58:56;17.27;;;8.85;;
52972;SDS011;38837;48.916;2.336;2024-01-27T08:00:58;15.95;;;8.57;;
52972;SDS011;38837;48.916;2.336;2024-01-27T08:03:00;16.73;;;9.23;;
52972;SDS011;38837;48.916;2.336;2024-01-27T08:05:05;16.33;;;8.95;;
52972;SDS011;38837;48.916;2.336;2024-01-27T08:07:07;17.35;;;9.32;;
52972;SDS011;38837;48.916;2.336;2024-01-27T08:11:17;17.33;;;9.10;;
52972;SDS011;38837;48.916;2.336;2024-01-27T08:13:19;13.93;;;8.63;;
52972;SDS011;38837;48.916;2.336;2024-01-27T08:15:21;14.18;;;9.10;;
52972;SDS011;38837;48.916;2.336;2024-01-27T08:17:23;16.75;;;9.48;;
52972;SDS011;38837;48.916;2.336;2024-01-27T08:19:25;16.38;;;8.70;;
52972;SDS011;38837;48.916;2.336;2024-01-27T08:21:28;17.23;;;9.47;;
52972;SDS011;38837;48.916;2.336;2024-01-27T08:23:29;16.13;;;8.93;;
52972;SDS011;38837;48.916;2.336;2024-01-27T08:25:31;15.98;;;9.38;;
52972;SDS011;38837;48.916;2.336;2024-01-27T08:27:33;17.65;;;9.13;;
52972;SDS011;38837;48.916;2.336;2024-01-27T08:29:35;13.00;;;8.73;;
52972;SDS011;38837;48.916;2.336;2024-01-27T08:31:37;17.40;;;9.57;;
52972;SDS011;38837;48.916;2.336;2024-01-27T08:33:40;21.48;;;10.25;;
52972;SDS011;38837;48.916;2.336;2024-01-27T08:35:42;16.77;;;9.57;;
52972;SDS011;38837;48.916;2.336;2024-01-27T08:37:44;17.48;;;10.02;;
52972;SDS011;38837;48.916;2.336;2024-01-27T08:39:46;18.48;;;8.27;;
52972;SDS011;38837;48.916;2.336;2024-01-27T08:41:48;13.32;;;9.07;;
52972;SDS011;38837;48.916;2.336;2024-01-27T08:43:50;14.43;;;8.82;;
52972;SDS011;38837;48.916;2.336;2024-01-27T08:45:52;13.77;;;8.93;;
52972;SDS011;38837;48.916;2.336;2024-01-27T08:47:56;17.63;;;10.13;;
52972;SDS011;38837;48.916;2.336;2024-01-27T08:49:58;16.60;;;8.40;;
52972;SDS011;38837;48.916;2.336;2024-01-27T08:52:00;16.33;;;8.82;;
52972;SDS011;38837;48.916;2.336;2024-01-27T08:54:02;15.57;;;8.70;;
52972;SDS011;38837;48.916;2.336;2024-01-27T08:56:04;23.80;;;9.68;;
52972;SDS011;38837;48.916;2.336;2024-01-27T08:58:06;19.60;;;8.65;;
52972;SDS011;38837;48.916;2.336;2024-01-27T09:00:08;14.98;;;8.98;;
52972;SDS011;38837;48.916;2.336;2024-01-27T09:02:11;16.08;;;8.63;;
52972;SDS011;38837;48.916;2.336;2024-01-27T09:04:13;14.93;;;9.02;;
52972;SDS011;38837;48.916;2.336;2024-01-27T09:06:14;17.17;;;9.65;;
52972;SDS011;38837;48.916;2.336;2024-01-27T09:08:18;21.40;;;12.85;;
52972;SDS011;38837;48.916;2.336;2024-01-27T09:10:19;18.77;;;12.02;;
52972;SDS011;38837;48.916;2.336;2024-01-27T09:12:21;20.83;;;12.07;;
52972;SDS011;38837;48.916;2.336;2024-01-27T09:14:23;22.02;;;11.52;;
52972;SDS011;38837;48.916;2.336;2024-01-27T09:16:25;28.15;;;13.60;;
52972;SDS011;38837;48.916;2.336;2024-01-27T09:18:27;23.75;;;13.35;;
52972;SDS011;38837;48.916;2.336;2024-01-27T09:20:30;24.98;;;13.15;;
52972;SDS011;38837;48.916;2.336;2024-01-27T09:22:32;24.73;;;14.55;;
52972;SDS011;38837;48.916;2.336;2024-01-27T09:24:34;25.90;;;13.68;;
52972;SDS011;38837;48.916;2.336;2024-01-27T09:26:36;32.63;;;14.13;;
52972;SDS011;38837;48.916;2.336;2024-01-27T09:28:38;22.02;;;13.23;;
52972;SDS011;38837;48.916;2.336;2024-01-27T09:30:44;24.58;;;13.07;;
52972;SDS011;38837;48.916;2.336;2024-01-27T09:32:46;30.60;;;14.25;;
52972;SDS011;38837;48.916;2.336;2024-01-27T09:34:48;19.85;;;12.25;;
52972;SDS011;38837;48.916;2.336;2024-01-27T09:36:50;17.83;;;11.07;;
52972;SDS011;38837;48.916;2.336;2024-01-27T09:38:52;20.52;;;12.27;;
52972;SDS011;38837;48.916;2.336;2024-01-27T09:40:55;19.73;;;12.27;;
52972;SDS011;38837;48.916;2.336;2024-01-27T09:42:58;21.92;;;11.68;;
52972;SDS011;38837;48.916;2.336;2024-01-27T09:45:01;21.73;;;12.30;;
52972;SDS011;38837;48.916;2.336;2024-01-27T09:47:03;20.85;;;10.70;;
52972;SDS011;38837;48.916;2.336;2024-01-27T09:49:05;21.10;;;12.05;;
52972;SDS011;38837;48.916;2.336;2024-01-27T09:51:10;22.88;;;11.07;;
52972;SDS011;38837;48.916;2.336;2024-01-27T09:53:12;18.17;;;10.63;;
52972;SDS011;38837;48.916;2.336;2024-01-27T09:55:14;22.65;;;10.85;;
52972;SDS011;38837;48.916;2.336;2024-01-27T09:57:16;20.35;;;11.25;;
52972;SDS011;38837;48.916;2.336;2024-01-27T09:59:20;24.20;;;11.50;;
52972;SDS011;38837;48.916;2.336;2024-01-27T10:01:22;21.95;;;10.70;;
52972;SDS011;38837;48.916;2.336;2024-01-27T10:03:27;20.65;;;9.88;;
52972;SDS011;38837;48.916;2.336;2024-01-27T10:05:31;21.20;;;10.43;;
52972;SDS011;38837;48.916;2.336;2024-01-27T10:07:33;20.02;;;10.77;;
52972;SDS011;38837;48.916;2.336;2024-01-27T10:09:35;22.48;;;10.45;;
52972;SDS011;38837;48.916;2.336;2024-01-27T10:11:38;25.77;;;10.48;;
52972;SDS011;38837;48.916;2.336;2024-01-27T10:13:43;23.65;;;11.48;;
52972;SDS011;38837;48.916;2.336;2024-01-27T10:15:45;24.02;;;11.00;;
52972;SDS011;38837;48.916;2.336;2024-01-27T10:17:47;22.80;;;10.50;;
52972;SDS011;38837;48.916;2.336;2024-01-27T10:19:58;27.35;;;12.95;;
52972;SDS011;38837;48.916;2.336;2024-01-27T10:22:07;40.50;;;14.10;;
52972;SDS011;38837;48.916;2.336;2024-01-27T10:24:09;28.48;;;12.85;;
52972;SDS011;38837;48.916;2.336;2024-01-27T10:26:11;34.33;;;14.32;;
52972;SDS011;38837;48.916;2.336;2024-01-27T10:28:13;32.38;;;13.75;;
52972;SDS011;38837;48.916;2.336;2024-01-27T10:30:16;39.97;;;14.82;;
52972;SDS011;38837;48.916;2.336;2024-01-27T10:32:19;36.10;;;12.93;;
52972;SDS011;38837;48.916;2.336;2024-01-27T10:34:21;38.75;;;13.80;;
52972;SDS011;38837;48.916;2.336;2024-01-27T10:36:24;38.90;;;13.27;;
52972;SDS011;38837;48.916;2.336;2024-01-27T10:38:39;41.00;;;13.32;;
52972;SDS011;38837;48.916;2.336;2024-01-27T10:40:41;27.40;;;13.80;;
52972;SDS011;38837;48.916;2.336;2024-01-27T10:42:43;35.75;;;14.77;;
52972;SDS011;38837;48.916;2.336;2024-01-27T10:44:46;36.97;;;15.00;;
52972;SDS011;38837;48.916;2.336;2024-01-27T10:46:49;38.22;;;14.43;;
52972;SDS011;38837;48.916;2.336;2024-01-27T10:48:52;27.15;;;13.88;;
52972;SDS011;38837;48.916;2.336;2024-01-27T10:50:54;32.97;;;13.98;;
52972;SDS011;38837;48.916;2.336;2024-01-27T10:52:59;34.67;;;14.00;;
52972;SDS011;38837;48.916;2.336;2024-01-27T10:55:04;44.13;;;14.30;;
52972;SDS011;38837;48.916;2.336;2024-01-27T10:57:10;74.82;;;15.35;;
52972;SDS011;38837;48.916;2.336;2024-01-27T10:59:14;70.18;;;15.23;;
52972;SDS011;38837;48.916;2.336;2024-01-27T11:01:17;57.30;;;14.25;;
52972;SDS011;38837;48.916;2.336;2024-01-27T11:03:20;73.18;;;15.52;;
52972;SDS011;38837;48.916;2.336;2024-01-27T11:05:24;67.63;;;14.13;;
52972;SDS011;38837;48.916;2.336;2024-01-27T11:07:26;50.38;;;12.07;;
52972;SDS011;38837;48.916;2.336;2024-01-27T11:09:29;72.63;;;10.10;;
52972;SDS011;38837;48.916;2.336;2024-01-27T11:11:32;252.05;;;20.27;;
52972;SDS011;38837;48.916;2.336;2024-01-27T11:13:34;171.00;;;16.35;;
52972;SDS011;38837;48.916;2.336;2024-01-27T11:15:54;200.50;;;17.58;;
52972;SDS011;38837;48.916;2.336;2024-01-27T11:17:57;121.90;;;14.25;;
52972;SDS011;38837;48.916;2.336;2024-01-27T11:20:03;146.85;;;13.88;;
52972;SDS011;38837;48.916;2.336;2024-01-27T11:22:06;150.23;;;14.80;;
52972;SDS011;38837;48.916;2.336;2024-01-27T11:26:17;65.53;;;10.07;;
52972;SDS011;38837;48.916;2.336;2024-01-27T11:28:25;68.25;;;9.35;;
52972;SDS011;38837;48.916;2.336;2024-01-27T11:30:28;55.90;;;7.90;;
52972;SDS011;38837;48.916;2.336;2024-01-27T11:32:31;43.25;;;7.30;;
52972;SDS011;38837;48.916;2.336;2024-01-27T11:34:43;34.35;;;5.97;;
52972;SDS011;38837;48.916;2.336;2024-01-27T11:36:46;33.78;;;5.75;;
52972;SDS011;38837;48.916;2.336;2024-01-27T11:38:50;15.38;;;4.50;;
52972;SDS011;38837;48.916;2.336;2024-01-27T11:40:52;17.00;;;4.68;;
52972;SDS011;38837;48.916;2.336;2024-01-27T11:42:55;13.35;;;4.38;;
52972;SDS011;38837;48.916;2.336;2024-01-27T11:44:57;14.02;;;4.28;;
52972;SDS011;38837;48.916;2.336;2024-01-27T11:46:59;9.90;;;3.60;;
52972;SDS011;38837;48.916;2.336;2024-01-27T11:49:01;14.50;;;4.00;;
52972;SDS011;38837;48.916;2.336;2024-01-27T11:51:05;13.43;;;3.80;;
52972;SDS011;38837;48.916;2.336;2024-01-27T11:53:09;8.52;;;3.20;;
52972;SDS011;38837;48.916;2.336;2024-01-27T11:55:11;13.38;;;3.65;;
52972;SDS011;38837;48.916;2.336;2024-01-27T11:57:13;9.32;;;3.13;;
52972;SDS011;38837;48.916;2.336;2024-01-27T11:59:15;18.10;;;3.60;;
52972;SDS011;38837;48.916;2.336;2024-01-27T12:01:17;11.95;;;3.50;;
52972;SDS011;38837;48.916;2.336;2024-01-27T12:03:19;12.73;;;3.60;;
52972;SDS011;38837;48.916;2.336;2024-01-27T12:05:22;9.48;;;3.80;;
52972;SDS011;38837;48.916;2.336;2024-01-27T12:07:25;10.40;;;3.65;;
52972;SDS011;38837;48.916;2.336;2024-01-27T12:09:27;21.50;;;4.40;;
52972;SDS011;38837;48.916;2.336;2024-01-27T12:11:30;15.60;;;3.80;;